Weather at Milbank Municipal Airport

Public forecast

Using degrees Fahrenheit for public forecast. Weather courtesy of forecast.io.

Closest aviation weather report (METAR) to Milbank Municipal Airport

Closest report is Ortonville Municipal Martinson Field, 7.5 nm (13.9 km) NE. Retrieved 2021/09/27 15:35 UTC (1 hour ago):

KVVV 271535Z AUTO 14004KT 10SM 19/11 A2989 RMK AO2

Closest aviation forecast (TAF) to Milbank Municipal Airport

Closest forecast is Watertown Regional Airport, 31.4 nm (58.1 km) SW. Retrieved 2021/09/27 12:22 UTC (4 hours ago):

TAF KATY 271120Z 2712/2812 VRB05KT P6SM SKC